createdAt,value
2023-03-04T00:02:14.468Z,65.47
2023-03-04T00:04:44.927Z,65.89
2023-03-04T00:07:16.636Z,65.67
2023-03-04T00:09:47.023Z,65.56
2023-03-04T00:12:17.386Z,65.66
2023-03-04T00:14:47.971Z,65.32
2023-03-04T00:17:18.729Z,65.43
2023-03-04T00:19:48.999Z,65.35
2023-03-04T00:22:19.785Z,65.30
2023-03-04T00:24:50.063Z,65.42
2023-03-04T00:27:20.399Z,65.76
2023-03-04T00:29:51.647Z,65.74
2023-03-04T00:32:22.154Z,65.50
2023-03-04T00:34:52.755Z,65.81
2023-03-04T00:37:23.180Z,65.85
2023-03-04T00:39:53.624Z,65.56
2023-03-04T00:42:24.040Z,65.82
2023-03-04T00:44:54.621Z,65.71
2023-03-04T00:47:24.890Z,65.76
2023-03-04T00:49:55.141Z,66.03
2023-03-04T00:52:26.033Z,66.26
2023-03-04T00:54:56.434Z,66.44
2023-03-04T00:57:26.686Z,66.04
2023-03-04T00:59:57.378Z,66.23
2023-03-04T01:02:27.735Z,66.33
2023-03-04T01:04:58.071Z,66.43
2023-03-04T01:07:30.123Z,66.53
2023-03-04T01:10:00.466Z,66.48
2023-03-04T01:12:30.912Z,65.71
2023-03-04T01:15:01.334Z,65.97
2023-03-04T01:17:31.848Z,65.71
2023-03-04T01:20:02.718Z,66.03
2023-03-04T01:22:33.062Z,65.95
2023-03-04T01:25:03.723Z,65.94
2023-03-04T01:27:34.728Z,65.97
2023-03-04T01:30:06.395Z,65.60
2023-03-04T01:32:37.657Z,65.64
2023-03-04T01:35:10.094Z,65.39
2023-03-04T01:37:40.484Z,65.76
2023-03-04T01:40:14.701Z,65.64
2023-03-04T01:42:45.671Z,65.42
2023-03-04T01:45:18.967Z,65.27
2023-03-04T01:47:50.418Z,65.02
2023-03-04T01:50:25.399Z,65.44
2023-03-04T01:52:56.159Z,65.27
2023-03-04T01:55:27.421Z,65.68
2023-03-04T01:57:58.168Z,65.58
2023-03-04T02:00:31.722Z,65.73
2023-03-04T02:03:07.198Z,65.56
2023-03-04T02:05:39.478Z,65.24
2023-03-04T02:08:10.416Z,65.03
2023-03-04T02:10:41.400Z,64.53
2023-03-04T02:13:12.221Z,64.80
2023-03-04T02:15:42.948Z,64.32
2023-03-04T02:18:17.271Z,64.24
2023-03-04T02:20:55.158Z,64.48
2023-03-04T02:23:29.852Z,64.34
2023-03-04T02:26:14.010Z,64.27
2023-03-04T02:28:45.165Z,64.58
2023-03-04T02:31:24.927Z,64.64
2023-03-04T02:33:58.011Z,64.10
2023-03-04T02:36:29.733Z,64.45
2023-03-04T02:39:04.191Z,64.30
2023-03-04T02:41:34.982Z,63.70
2023-03-04T02:44:10.726Z,63.73
2023-03-04T02:46:40.885Z,63.80
2023-03-04T02:49:11.067Z,64.26
2023-03-04T02:51:41.743Z,63.62
2023-03-04T02:54:18.182Z,63.96
2023-03-04T02:56:49.263Z,63.95
2023-03-04T02:59:20.285Z,63.54
2023-03-04T03:01:51.595Z,63.44
2023-03-04T03:04:23.757Z,63.02
2023-03-04T03:06:54.250Z,62.80
2023-03-04T03:09:24.688Z,62.59
2023-03-04T03:11:54.981Z,62.67
2023-03-04T03:14:25.484Z,62.90
2023-03-04T03:16:55.715Z,62.62
2023-03-04T03:19:25.969Z,62.50
2023-03-04T03:21:56.939Z,62.71
2023-03-04T03:24:27.308Z,62.76
2023-03-04T03:26:57.935Z,62.66
2023-03-04T03:29:29.366Z,62.62
2023-03-04T03:31:59.636Z,62.77
2023-03-04T03:34:30.659Z,63.32
2023-03-04T03:37:01.127Z,63.56
2023-03-04T03:39:32.211Z,62.91
2023-03-04T03:42:02.838Z,63.14
2023-03-04T03:44:33.302Z,63.21
2023-03-04T03:47:03.974Z,63.16
2023-03-04T03:49:34.213Z,62.84
2023-03-04T03:52:04.817Z,62.81
2023-03-04T03:54:35.905Z,62.42
2023-03-04T03:57:06.668Z,62.47
2023-03-04T03:59:37.248Z,62.13
2023-03-04T04:02:08.028Z,61.78
2023-03-04T04:04:38.715Z,61.88
2023-03-04T04:07:09.588Z,62.01
2023-03-04T04:09:43.024Z,61.53
2023-03-04T04:12:17.619Z,61.45
2023-03-04T04:14:48.589Z,61.51
2023-03-04T04:17:19.498Z,61.09
2023-03-04T04:19:50.049Z,60.97
2023-03-04T04:22:21.677Z,61.23
2023-03-04T04:24:51.996Z,61.18
2023-03-04T04:27:23.165Z,61.03
2023-03-04T04:29:53.465Z,60.73
2023-03-04T04:32:23.956Z,60.92
2023-03-04T04:34:54.176Z,60.57
2023-03-04T04:37:24.492Z,60.49
2023-03-04T04:39:55.986Z,60.55
2023-03-04T04:42:26.656Z,60.29
2023-03-04T04:44:57.923Z,60.24
2023-03-04T04:47:28.214Z,60.10
2023-03-04T04:49:58.759Z,60.08
2023-03-04T04:52:29.247Z,59.81
2023-03-04T04:54:59.877Z,59.24
2023-03-04T04:57:30.383Z,58.78
2023-03-04T05:00:00.908Z,58.55
2023-03-04T05:02:36.080Z,58.22
2023-03-04T05:05:08.822Z,57.06
2023-03-04T05:07:39.294Z,57.03
2023-03-04T05:10:12.119Z,56.58
2023-03-04T05:12:42.683Z,56.61
2023-03-04T05:15:13.639Z,55.88
2023-03-04T05:17:44.425Z,55.14
2023-03-04T05:20:15.561Z,55.33
2023-03-04T05:22:46.342Z,55.06
2023-03-04T05:25:17.337Z,54.93
2023-03-04T05:27:47.672Z,55.07
2023-03-04T05:30:18.840Z,55.21
2023-03-04T05:32:49.216Z,54.88
2023-03-04T05:35:19.844Z,54.36
2023-03-04T05:37:50.235Z,53.61
2023-03-04T05:40:20.986Z,53.15
2023-03-04T05:42:51.911Z,52.47
2023-03-04T05:45:22.245Z,51.97
2023-03-04T05:47:53.265Z,51.34
2023-03-04T05:50:24.367Z,50.77
2023-03-04T05:52:55.150Z,50.04
2023-03-04T05:55:26.752Z,48.32
2023-03-04T05:57:57.910Z,46.79
2023-03-04T06:00:28.620Z,44.60
2023-03-04T06:02:59.058Z,41.70
2023-03-04T06:05:29.548Z,41.13
2023-03-04T06:07:59.996Z,40.69
2023-03-04T06:10:30.257Z,40.74
2023-03-04T06:13:00.845Z,39.34
2023-03-04T06:15:32.351Z,37.62
2023-03-04T06:18:14.678Z,36.23
2023-03-04T06:20:45.362Z,33.77
2023-03-04T06:23:15.875Z,33.68
2023-03-04T06:25:46.638Z,34.24
2023-03-04T06:28:17.408Z,34.70
2023-03-04T06:30:47.945Z,35.25
2023-03-04T06:33:21.341Z,35.25
2023-03-04T06:35:56.390Z,35.89
2023-03-04T06:38:27.171Z,36.62
2023-03-04T06:40:57.804Z,37.52
2023-03-04T06:43:28.193Z,38.00
2023-03-04T06:45:58.344Z,36.75
2023-03-04T06:48:29.457Z,34.72
2023-03-04T06:50:59.799Z,33.19
2023-03-04T06:53:30.109Z,32.35
2023-03-04T06:56:12.386Z,32.37
2023-03-04T06:58:53.586Z,33.07
2023-03-04T07:01:25.811Z,33.24
2023-03-04T07:03:57.356Z,32.71
2023-03-04T07:06:29.798Z,31.15
2023-03-04T07:09:00.193Z,29.50
2023-03-04T07:11:31.224Z,28.49
2023-03-04T07:14:02.269Z,27.57
2023-03-04T07:16:35.175Z,27.02
2023-03-04T07:19:06.840Z,27.52
2023-03-04T07:21:37.703Z,27.34
2023-03-04T07:24:08.777Z,26.67
2023-03-04T07:26:39.197Z,26.06
2023-03-04T07:29:09.807Z,25.04
2023-03-04T07:31:40.510Z,24.72
2023-03-04T07:34:14.606Z,25.05
2023-03-04T07:36:45.048Z,25.74
2023-03-04T07:39:15.343Z,27.72
2023-03-04T07:41:45.879Z,29.37
2023-03-04T07:44:16.167Z,30.51
2023-03-04T07:46:46.609Z,30.41
2023-03-04T07:49:17.267Z,29.03
2023-03-04T07:51:48.417Z,28.39
2023-03-04T07:54:19.875Z,27.64
2023-03-04T07:56:50.225Z,27.91
2023-03-04T07:59:20.424Z,28.54
2023-03-04T08:01:50.707Z,29.01
2023-03-04T08:04:21.045Z,29.70
2023-03-04T08:06:51.594Z,30.11
2023-03-04T08:09:22.056Z,31.07
2023-03-04T08:11:52.668Z,32.01
2023-03-04T08:14:23.201Z,32.43
2023-03-04T08:16:53.881Z,32.91
2023-03-04T08:19:25.950Z,32.89
2023-03-04T08:21:56.609Z,33.14
2023-03-04T08:24:26.991Z,33.63
2023-03-04T08:26:57.784Z,34.65
2023-03-04T08:29:28.378Z,35.32
2023-03-04T08:31:59.997Z,35.89
2023-03-04T08:34:31.409Z,36.26
2023-03-04T08:37:02.328Z,36.51
2023-03-04T08:39:35.424Z,36.70
2023-03-04T08:42:05.917Z,36.88
2023-03-04T08:44:37.423Z,37.35
2023-03-04T08:47:09.995Z,37.19
2023-03-04T08:49:40.688Z,37.13
2023-03-04T08:52:11.533Z,36.83
2023-03-04T08:54:45.168Z,36.65
2023-03-04T08:57:15.718Z,36.53
2023-03-04T08:59:46.258Z,36.98
2023-03-04T09:02:17.259Z,37.09
2023-03-04T09:04:47.689Z,37.01
2023-03-04T09:07:18.364Z,37.05
2023-03-04T09:09:48.599Z,37.21
2023-03-04T09:12:18.979Z,37.38
2023-03-04T09:15:01.142Z,37.42
2023-03-04T09:17:41.968Z,37.53
2023-03-04T09:20:14.794Z,37.89
2023-03-04T09:22:45.861Z,37.67
2023-03-04T09:25:16.812Z,37.66
2023-03-04T09:27:47.120Z,37.84
2023-03-04T09:30:18.650Z,37.75
2023-03-04T09:32:49.294Z,37.57
2023-03-04T09:35:21.973Z,37.83
2023-03-04T09:37:54.090Z,37.49
2023-03-04T09:40:27.197Z,37.43
2023-03-04T09:42:59.659Z,37.77
2023-03-04T09:45:35.376Z,37.89
2023-03-04T09:48:07.738Z,37.97
2023-03-04T09:50:45.040Z,38.29
2023-03-04T09:53:22.021Z,38.38
2023-03-04T09:55:53.038Z,38.58
2023-03-04T09:58:32.177Z,38.49
2023-03-04T10:01:08.291Z,38.58
2023-03-04T10:03:44.789Z,38.63
2023-03-04T10:06:19.232Z,38.84
2023-03-04T10:08:55.185Z,38.85
2023-03-04T10:11:28.542Z,38.98
2023-03-04T10:14:27.242Z,39.20
2023-03-04T10:17:01.805Z,38.84
2023-03-04T10:19:41.323Z,38.86
2023-03-04T10:22:20.460Z,39.20
2023-03-04T10:24:50.982Z,39.30
2023-03-04T10:27:23.372Z,39.40
2023-03-04T10:29:53.768Z,39.33
2023-03-04T10:32:24.183Z,39.23
2023-03-04T10:34:54.845Z,39.65
2023-03-04T10:37:25.326Z,39.67
2023-03-04T10:39:55.731Z,39.80
2023-03-04T10:42:30.388Z,39.88
2023-03-04T10:45:02.239Z,40.31
2023-03-04T10:47:35.022Z,40.22
2023-03-04T10:50:08.416Z,40.10
2023-03-04T10:52:41.674Z,39.72
2023-03-04T10:55:18.631Z,38.85
2023-03-04T10:57:51.390Z,39.11
2023-03-04T11:00:31.669Z,39.42
2023-03-04T11:03:23.482Z,38.74
2023-03-04T11:05:55.788Z,38.86
2023-03-04T11:08:26.398Z,38.65
2023-03-04T11:10:56.661Z,38.68
2023-03-04T11:13:27.640Z,39.18
2023-03-04T11:16:00.376Z,39.27
2023-03-04T11:18:36.766Z,37.76
2023-03-04T11:21:07.839Z,37.37
2023-03-04T11:23:43.920Z,37.39
2023-03-04T11:26:18.438Z,37.62
2023-03-04T11:28:54.506Z,37.63
2023-03-04T11:31:31.554Z,37.46
2023-03-04T11:34:05.246Z,37.30
2023-03-04T11:36:40.844Z,37.66
2023-03-04T11:39:17.586Z,37.90
2023-03-04T11:41:47.705Z,38.00
2023-03-04T11:44:18.453Z,37.56
2023-03-04T11:46:57.969Z,37.24
2023-03-04T11:50:02.538Z,36.88
2023-03-04T11:52:46.317Z,37.03
2023-03-04T11:55:29.586Z,37.14
2023-03-04T11:58:08.649Z,37.07
2023-03-04T12:00:43.450Z,37.34
2023-03-04T12:03:28.874Z,37.67
2023-03-04T12:06:03.130Z,37.90
2023-03-04T12:08:45.889Z,38.13
2023-03-04T12:11:22.156Z,38.60
2023-03-04T12:14:21.273Z,38.67
2023-03-04T12:17:27.550Z,38.58
2023-03-04T12:20:14.073Z,38.66
2023-03-04T12:22:47.581Z,38.40
2023-03-04T12:25:41.900Z,39.04
2023-03-04T12:28:43.393Z,39.56
2023-03-04T12:31:37.640Z,40.44
2023-03-04T12:34:35.712Z,40.77
2023-03-04T12:37:24.006Z,41.23
2023-03-04T12:40:06.934Z,41.74
2023-03-04T12:42:44.130Z,41.89
2023-03-04T12:45:22.029Z,42.13
2023-03-04T12:47:59.644Z,42.39
2023-03-04T12:50:42.998Z,42.42
2023-03-04T12:53:20.972Z,42.03
2023-03-04T12:55:51.962Z,42.03
2023-03-04T12:58:24.656Z,41.91
2023-03-04T13:01:00.905Z,41.99
2023-03-04T13:03:39.901Z,42.45
2023-03-04T13:06:22.211Z,42.80
2023-03-04T13:08:59.720Z,43.50
2023-03-04T13:12:03.796Z,44.01
2023-03-04T13:14:35.859Z,44.71
2023-03-04T13:17:40.936Z,44.65
2023-03-04T13:20:26.284Z,45.34
2023-03-04T13:22:58.488Z,45.29
2023-03-04T13:25:34.693Z,45.59
2023-03-04T13:28:16.007Z,44.99
2023-03-04T13:31:13.720Z,45.05
2023-03-04T13:33:59.233Z,45.28
2023-03-04T13:36:56.792Z,45.63
2023-03-04T13:39:31.946Z,45.71
2023-03-04T13:42:02.941Z,45.73
2023-03-04T13:45:01.440Z,45.72
2023-03-04T13:47:45.724Z,45.81
2023-03-04T13:50:31.429Z,45.87
2023-03-04T13:53:35.078Z,46.24
2023-03-04T13:56:10.733Z,46.00
2023-03-04T13:58:41.802Z,46.01
2023-03-04T14:01:26.270Z,46.14
2023-03-04T14:03:57.605Z,46.29
2023-03-04T14:06:29.578Z,46.80
2023-03-04T14:09:00.445Z,46.76
2023-03-04T14:11:33.983Z,46.68
2023-03-04T14:14:07.423Z,46.87
2023-03-04T14:16:41.733Z,46.93
2023-03-04T14:19:17.447Z,46.91
2023-03-04T14:21:48.067Z,47.35
2023-03-04T14:24:19.713Z,47.42
2023-03-04T14:26:50.047Z,47.24
2023-03-04T14:29:24.937Z,47.43
2023-03-04T14:31:55.866Z,47.45
2023-03-04T14:34:34.842Z,47.39
2023-03-04T14:37:17.810Z,47.31
2023-03-04T14:39:51.713Z,47.50
2023-03-04T14:42:23.620Z,47.78
2023-03-04T14:44:54.659Z,47.84
2023-03-04T14:47:27.983Z,48.29
2023-03-04T14:49:58.892Z,48.54
2023-03-04T14:52:33.925Z,48.57
2023-03-04T14:55:17.390Z,48.72
2023-03-04T14:57:49.977Z,48.90
2023-03-04T15:00:28.807Z,48.95
2023-03-04T15:03:01.294Z,49.54
2023-03-04T15:05:33.133Z,49.75
2023-03-04T15:08:06.784Z,50.31
2023-03-04T15:10:38.593Z,51.08
2023-03-04T15:13:10.774Z,51.19
2023-03-04T15:15:46.198Z,51.25
2023-03-04T15:18:21.756Z,51.50
2023-03-04T15:20:57.322Z,51.96
2023-03-04T15:23:29.133Z,51.87
2023-03-04T15:26:01.938Z,51.92
2023-03-04T15:28:35.963Z,51.70
2023-03-04T15:31:06.934Z,51.92
2023-03-04T15:33:39.017Z,51.91
2023-03-04T15:36:14.740Z,52.30
2023-03-04T15:38:48.016Z,52.03
2023-03-04T15:41:22.644Z,52.04
2023-03-04T15:43:54.047Z,52.12
2023-03-04T15:46:24.497Z,51.91
2023-03-04T15:48:54.874Z,51.83
2023-03-04T15:51:26.192Z,51.72
2023-03-04T15:53:58.063Z,51.75
2023-03-04T15:56:29.645Z,51.71
2023-03-04T15:59:02.604Z,51.34
2023-03-04T16:01:36.226Z,51.35
2023-03-04T16:04:07.111Z,51.24
2023-03-04T16:06:37.446Z,51.42
2023-03-04T16:09:11.946Z,51.40
2023-03-04T16:11:47.048Z,51.58
2023-03-04T16:14:18.093Z,51.76
2023-03-04T16:16:50.245Z,52.05
2023-03-04T16:19:23.703Z,52.31
2023-03-04T16:21:55.000Z,52.54
2023-03-04T16:24:25.895Z,52.97
2023-03-04T16:26:57.726Z,52.87
2023-03-04T16:29:29.666Z,53.02
2023-03-04T16:32:00.033Z,53.29
2023-03-04T16:34:31.745Z,53.47
2023-03-04T16:37:06.299Z,53.35
2023-03-04T16:39:36.665Z,53.83
2023-03-04T16:42:11.893Z,53.54
2023-03-04T16:44:42.619Z,53.78
2023-03-04T16:47:13.501Z,54.00
2023-03-04T16:49:45.202Z,54.31
2023-03-04T16:52:23.818Z,54.15
2023-03-04T16:54:55.007Z,54.06
2023-03-04T16:57:28.345Z,54.01
2023-03-04T16:59:59.785Z,54.16
2023-03-04T17:02:31.677Z,54.35
2023-03-04T17:05:02.674Z,54.19
2023-03-04T17:07:33.068Z,54.06
2023-03-04T17:10:03.743Z,54.35
2023-03-04T17:12:34.159Z,54.31
2023-03-04T17:15:05.466Z,54.33
2023-03-04T17:17:36.353Z,54.27
2023-03-04T17:20:08.772Z,54.59
2023-03-04T17:22:39.676Z,54.83
2023-03-04T17:25:11.892Z,55.02
2023-03-04T17:27:42.545Z,55.06
2023-03-04T17:30:15.652Z,55.29
2023-03-04T17:32:46.957Z,55.17
2023-03-04T17:35:19.464Z,55.52
2023-03-04T17:37:50.508Z,55.61
2023-03-04T17:40:21.253Z,55.45
2023-03-04T17:42:51.728Z,55.69
2023-03-04T17:45:22.498Z,56.09
2023-03-04T17:47:52.990Z,56.56
2023-03-04T17:50:23.664Z,57.03
2023-03-04T17:52:54.251Z,57.76
2023-03-04T17:55:24.644Z,57.71
2023-03-04T17:57:57.146Z,57.65
2023-03-04T18:00:28.252Z,57.42
2023-03-04T18:02:58.842Z,57.27
2023-03-04T18:05:29.144Z,57.53
2023-03-04T18:07:59.566Z,57.39
2023-03-04T18:10:29.703Z,58.09
2023-03-04T18:13:00.110Z,57.35
2023-03-04T18:15:31.004Z,57.52
2023-03-04T18:18:01.409Z,57.54
2023-03-04T18:20:31.900Z,57.32
2023-03-04T18:23:02.073Z,57.24
2023-03-04T18:25:32.599Z,57.21
2023-03-04T18:28:04.122Z,57.29
2023-03-04T18:30:34.743Z,57.39
2023-03-04T18:33:05.420Z,57.27
2023-03-04T18:35:36.176Z,57.11
2023-03-04T18:38:06.631Z,57.64
2023-03-04T18:40:37.275Z,57.05
2023-03-04T18:43:08.471Z,57.25
2023-03-04T18:45:39.474Z,57.12
2023-03-04T18:48:10.097Z,56.92
2023-03-04T18:50:40.580Z,57.28
2023-03-04T18:53:12.766Z,57.10
2023-03-04T18:55:44.154Z,56.61
2023-03-04T18:58:14.555Z,57.04
2023-03-04T19:00:45.360Z,57.08
2023-03-04T19:03:16.366Z,56.83
2023-03-04T19:05:51.555Z,57.02
2023-03-04T19:08:24.155Z,56.66
2023-03-04T19:10:55.264Z,56.66
2023-03-04T19:13:25.969Z,56.33
2023-03-04T19:15:56.769Z,56.41
2023-03-04T19:18:28.221Z,56.07
2023-03-04T19:21:01.676Z,56.08
2023-03-04T19:23:32.874Z,56.34
2023-03-04T19:26:03.836Z,56.24
2023-03-04T19:28:34.179Z,56.02
2023-03-04T19:31:08.227Z,56.15
2023-03-04T19:33:40.074Z,56.06
2023-03-04T19:36:12.135Z,55.79
2023-03-04T19:38:44.812Z,55.69
2023-03-04T19:41:17.107Z,55.67
2023-03-04T19:43:47.838Z,55.61
2023-03-04T19:46:18.288Z,55.27
2023-03-04T19:48:49.943Z,55.38
2023-03-04T19:51:21.981Z,55.14
2023-03-04T19:53:52.469Z,55.36
2023-03-04T19:56:23.192Z,55.13
2023-03-04T19:58:56.053Z,54.97
2023-03-04T20:01:28.183Z,55.26
2023-03-04T20:04:00.561Z,55.18
2023-03-04T20:06:31.324Z,55.41
2023-03-04T20:09:02.352Z,55.32
2023-03-04T20:11:34.746Z,55.28
2023-03-04T20:14:08.032Z,55.39
2023-03-04T20:16:39.094Z,55.67
2023-03-04T20:19:09.576Z,55.59
2023-03-04T20:21:39.870Z,55.35
2023-03-04T20:24:10.874Z,55.10
2023-03-04T20:26:41.598Z,55.31
2023-03-04T20:29:13.170Z,55.28
2023-03-04T20:31:44.724Z,55.57
2023-03-04T20:34:15.415Z,55.55
2023-03-04T20:36:45.864Z,55.42
2023-03-04T20:39:28.127Z,55.37
2023-03-04T20:41:59.587Z,55.57
2023-03-04T20:44:30.480Z,55.71
2023-03-04T20:47:01.492Z,55.79
2023-03-04T20:49:32.167Z,55.90
2023-03-04T20:52:06.091Z,55.50
2023-03-04T20:54:37.168Z,55.72
2023-03-04T20:57:08.351Z,55.69
2023-03-04T20:59:39.912Z,55.56
2023-03-04T21:02:12.296Z,55.91
2023-03-04T21:04:43.802Z,55.86
2023-03-04T21:07:14.569Z,55.93
2023-03-04T21:09:46.333Z,56.38
2023-03-04T21:12:16.704Z,56.04
2023-03-04T21:14:48.431Z,56.10
2023-03-04T21:17:18.782Z,55.91
2023-03-04T21:19:49.224Z,55.90
2023-03-04T21:22:21.288Z,55.82
2023-03-04T21:24:51.715Z,55.73
2023-03-04T21:27:22.340Z,55.49
2023-03-04T21:29:53.048Z,55.50
2023-03-04T21:32:26.167Z,55.51
2023-03-04T21:34:56.809Z,55.38
2023-03-04T21:37:28.111Z,54.99
2023-03-04T21:40:00.967Z,54.97
2023-03-04T21:42:31.264Z,55.28
2023-03-04T21:45:01.859Z,55.27
2023-03-04T21:47:32.192Z,55.39
2023-03-04T21:50:02.701Z,55.52
2023-03-04T21:52:32.992Z,55.14
2023-03-04T21:55:03.443Z,55.67
2023-03-04T21:57:33.857Z,55.62
2023-03-04T22:00:06.505Z,55.48
2023-03-04T22:02:36.937Z,55.41
2023-03-04T22:05:09.167Z,55.67
2023-03-04T22:07:39.802Z,55.73
2023-03-04T22:10:12.196Z,55.60
2023-03-04T22:12:42.386Z,55.79
2023-03-04T22:15:15.874Z,55.62
2023-03-04T22:17:46.783Z,55.52
2023-03-04T22:20:17.525Z,55.83
2023-03-04T22:22:48.329Z,55.85
2023-03-04T22:25:18.846Z,55.91
2023-03-04T22:27:50.046Z,55.83
2023-03-04T22:30:21.270Z,55.72
2023-03-04T22:32:52.933Z,55.95
2023-03-04T22:35:23.621Z,55.92
2023-03-04T22:37:54.178Z,55.90
2023-03-04T22:40:24.968Z,56.11
2023-03-04T22:42:55.664Z,55.77
2023-03-04T22:45:28.040Z,55.95
2023-03-04T22:47:59.059Z,55.85
2023-03-04T22:50:29.905Z,55.91
2023-03-04T22:53:01.433Z,55.85
2023-03-04T22:55:32.724Z,56.05
2023-03-04T22:58:03.551Z,55.60
2023-03-04T23:00:34.003Z,55.63
2023-03-04T23:03:06.220Z,55.89
2023-03-04T23:05:36.622Z,55.79
2023-03-04T23:08:07.601Z,55.77
2023-03-04T23:10:38.216Z,55.85
2023-03-04T23:13:08.416Z,55.85
2023-03-04T23:15:40.250Z,55.89
2023-03-04T23:18:10.459Z,55.82
2023-03-04T23:20:43.298Z,55.54
2023-03-04T23:23:13.529Z,55.67
2023-03-04T23:25:46.047Z,55.91
2023-03-04T23:28:16.678Z,55.80
2023-03-04T23:30:47.220Z,55.86
2023-03-04T23:33:17.438Z,56.03
2023-03-04T23:35:47.855Z,56.25
2023-03-04T23:38:18.265Z,56.16
2023-03-04T23:40:48.844Z,56.41
2023-03-04T23:43:19.266Z,56.88
2023-03-04T23:45:49.697Z,56.89
2023-03-04T23:48:20.105Z,57.27
2023-03-04T23:50:53.718Z,57.60
2023-03-04T23:53:24.083Z,57.67
2023-03-04T23:55:55.116Z,57.92
2023-03-04T23:58:26.141Z,58.16
